BEA302 EGKK-EHAM
Flight info
| Callsign | BEA302 |
|---|---|
| Flight time | 0h 54m |
| Altitude | 27000 |
| Route | FRAN1Z FRANE M604 GASBA M197 REDFA REDF1A |
| Aircraft | DH8D/M-VGDW/C |
Departure
| Time | 2026-05-05 05:27 |
|---|---|
| Airport | London Gatwick Airport (EGKK) |
Arrival
| Time | 2026-05-05 06:22 |
|---|---|
| Airport | Amsterdam Airport Schiphol (EHAM) |
| Time | Latitude | Longitude | Altitude | Speed | Heading |
|---|---|---|---|---|---|
| 2026-05-05 04:54 | 51.15777 | -0.16934 | 202 ft | 0 kts | 68° |
| 2026-05-05 05:15 | 51.15777 | -0.16933 | 202 ft | 0 kts | 68° |
| 2026-05-05 05:16 | 51.15772 | -0.16952 | 202 ft | 2 kts | 68° |
| 2026-05-05 05:16 | 51.15767 | -0.16974 | 202 ft | 2 kts | 68° |
| 2026-05-05 05:16 | 51.15761 | -0.16996 | 201 ft | 2 kts | 68° |
| 2026-05-05 05:16 | 51.15755 | -0.17019 | 201 ft | 2 kts | 69° |
| 2026-05-05 05:17 | 51.15754 | -0.17041 | 201 ft | 2 kts | 104° |
| 2026-05-05 05:17 | 51.15761 | -0.17061 | 201 ft | 2 kts | 139° |
| 2026-05-05 05:17 | 51.15772 | -0.17071 | 201 ft | 1 kts | 167° |
| 2026-05-05 05:17 | 51.15774 | -0.17071 | 201 ft | 0 kts | 168° |
| 2026-05-05 05:19 | 51.15737 | -0.17059 | 201 ft | 0 kts | 168° |
| 2026-05-05 05:19 | 51.15731 | -0.17057 | 201 ft | 4 kts | 168° |
| 2026-05-05 05:20 | 51.15663 | -0.17040 | 202 ft | 9 kts | 196° |
| 2026-05-05 05:20 | 51.15622 | -0.17174 | 202 ft | 19 kts | 257° |
| 2026-05-05 05:20 | 51.15591 | -0.17377 | 201 ft | 11 kts | 258° |
| 2026-05-05 05:20 | 51.15539 | -0.17438 | 201 ft | 13 kts | 170° |
| 2026-05-05 05:21 | 51.15411 | -0.17393 | 202 ft | 21 kts | 167° |
| 2026-05-05 05:21 | 51.15314 | -0.17380 | 203 ft | 11 kts | 221° |
| 2026-05-05 05:21 | 51.15281 | -0.17573 | 203 ft | 26 kts | 259° |
| 2026-05-05 05:21 | 51.15239 | -0.17893 | 203 ft | 29 kts | 257° |
| 2026-05-05 05:22 | 51.15199 | -0.18188 | 203 ft | 27 kts | 258° |
| 2026-05-05 05:22 | 51.15177 | -0.18349 | 202 ft | 0 kts | 258° |
| 2026-05-05 05:22 | 51.15171 | -0.18395 | 202 ft | 13 kts | 259° |
| 2026-05-05 05:22 | 51.15140 | -0.18643 | 203 ft | 29 kts | 257° |
| 2026-05-05 05:23 | 51.15090 | -0.19005 | 203 ft | 35 kts | 257° |
| 2026-05-05 05:23 | 51.15033 | -0.19418 | 203 ft | 41 kts | 257° |
| 2026-05-05 05:23 | 51.14968 | -0.19887 | 203 ft | 43 kts | 257° |
| 2026-05-05 05:23 | 51.14905 | -0.20348 | 204 ft | 39 kts | 257° |
| 2026-05-05 05:24 | 51.14850 | -0.20752 | 205 ft | 38 kts | 258° |
| 2026-05-05 05:24 | 51.14803 | -0.21091 | 206 ft | 23 kts | 260° |
| 2026-05-05 05:24 | 51.14733 | -0.21272 | 206 ft | 24 kts | 231° |
| 2026-05-05 05:24 | 51.14633 | -0.21332 | 207 ft | 13 kts | 170° |
| 2026-05-05 05:25 | 51.14613 | -0.21325 | 207 ft | 0 kts | 167° |
| 2026-05-05 05:25 | 51.14606 | -0.21323 | 207 ft | 6 kts | 168° |
| 2026-05-05 05:25 | 51.14525 | -0.21242 | 207 ft | 17 kts | 121° |
| 2026-05-05 05:26 | 51.14525 | -0.21118 | 206 ft | 0 kts | 77° |
| 2026-05-05 05:26 | 51.14526 | -0.21116 | 206 ft | 2 kts | 77° |
| 2026-05-05 05:26 | 51.14575 | -0.20747 | 205 ft | 71 kts | 77° |
| 2026-05-05 05:27 | 51.14727 | -0.19663 | 204 ft | 128 kts | 78° |
| 2026-05-05 05:27 | 51.14935 | -0.18085 | 286 ft | 153 kts | 81° |
| 2026-05-05 05:27 | 51.15438 | -0.14574 | 822 ft | 178 kts | 79° |
| 2026-05-05 05:28 | 51.15740 | -0.12559 | 1070 ft | 196 kts | 80° |
| 2026-05-05 05:28 | 51.16014 | -0.10417 | 1521 ft | 201 kts | 80° |
| 2026-05-05 05:28 | 51.16297 | -0.08223 | 2004 ft | 205 kts | 80° |
| 2026-05-05 05:28 | 51.16580 | -0.06049 | 2564 ft | 204 kts | 81° |
| 2026-05-05 05:29 | 51.16843 | -0.03832 | 3144 ft | 205 kts | 88° |
| 2026-05-05 05:29 | 51.16860 | -0.01586 | 3726 ft | 203 kts | 96° |
| 2026-05-05 05:29 | 51.16810 | 0.00624 | 4298 ft | 204 kts | 96° |
| 2026-05-05 05:29 | 51.16758 | 0.02897 | 4727 ft | 215 kts | 96° |
| 2026-05-05 05:30 | 51.16699 | 0.05423 | 4919 ft | 235 kts | 95° |
| 2026-05-05 05:30 | 51.16650 | 0.08038 | 4979 ft | 240 kts | 95° |
| 2026-05-05 05:30 | 51.16605 | 0.10672 | 4999 ft | 243 kts | 95° |
| 2026-05-05 05:30 | 51.16558 | 0.13434 | 5003 ft | 245 kts | 95° |
| 2026-05-05 05:31 | 51.16513 | 0.16124 | 5006 ft | 245 kts | 94° |
| 2026-05-05 05:31 | 51.16511 | 0.18848 | 5004 ft | 245 kts | 92° |
| 2026-05-05 05:31 | 51.16526 | 0.21554 | 5004 ft | 245 kts | 92° |
| 2026-05-05 05:31 | 51.16539 | 0.24320 | 5011 ft | 245 kts | 92° |
| 2026-05-05 05:32 | 51.16548 | 0.27034 | 5023 ft | 246 kts | 92° |
| 2026-05-05 05:32 | 51.16556 | 0.29753 | 4992 ft | 245 kts | 92° |
| 2026-05-05 05:32 | 51.16563 | 0.32462 | 5000 ft | 244 kts | 93° |
| 2026-05-05 05:32 | 51.16568 | 0.35149 | 5026 ft | 242 kts | 93° |
| 2026-05-05 05:33 | 51.16571 | 0.37861 | 5033 ft | 243 kts | 93° |
| 2026-05-05 05:33 | 51.16574 | 0.40525 | 5010 ft | 243 kts | 93° |
| 2026-05-05 05:33 | 51.16575 | 0.43233 | 5005 ft | 242 kts | 93° |
| 2026-05-05 05:33 | 51.16576 | 0.45952 | 4995 ft | 241 kts | 93° |
| 2026-05-05 05:34 | 51.16577 | 0.48606 | 5009 ft | 240 kts | 93° |
| 2026-05-05 05:34 | 51.16591 | 0.51281 | 5006 ft | 240 kts | 89° |
| 2026-05-05 05:34 | 51.17156 | 0.53794 | 4983 ft | 243 kts | 52° |
| 2026-05-05 05:34 | 51.18572 | 0.55231 | 5003 ft | 241 kts | 18° |
| 2026-05-05 05:35 | 51.20171 | 0.55904 | 4998 ft | 241 kts | 13° |
| 2026-05-05 05:35 | 51.21797 | 0.56528 | 4996 ft | 240 kts | 13° |
| 2026-05-05 05:35 | 51.23429 | 0.57142 | 4998 ft | 238 kts | 13° |
| 2026-05-05 05:35 | 51.25015 | 0.57736 | 4988 ft | 238 kts | 13° |
| 2026-05-05 05:36 | 51.26623 | 0.58339 | 4996 ft | 236 kts | 13° |
| 2026-05-05 05:36 | 51.28191 | 0.58926 | 5000 ft | 235 kts | 13° |
| 2026-05-05 05:36 | 51.29787 | 0.59524 | 5011 ft | 234 kts | 13° |
| 2026-05-05 05:36 | 51.31329 | 0.60101 | 5007 ft | 233 kts | 13° |
| 2026-05-05 05:37 | 51.32930 | 0.60702 | 5033 ft | 241 kts | 13° |
| 2026-05-05 05:37 | 51.34562 | 0.61326 | 5523 ft | 242 kts | 13° |
| 2026-05-05 05:37 | 51.36195 | 0.61946 | 6203 ft | 239 kts | 13° |
| 2026-05-05 05:37 | 51.37743 | 0.62523 | 6480 ft | 216 kts | 12° |
| 2026-05-05 05:38 | 51.39183 | 0.63048 | 6114 ft | 206 kts | 13° |
| 2026-05-05 05:38 | 51.40603 | 0.63619 | 5988 ft | 220 kts | 15° |
| 2026-05-05 05:38 | 51.42139 | 0.64281 | 6182 ft | 235 kts | 15° |
| 2026-05-05 05:38 | 51.43738 | 0.64954 | 6610 ft | 243 kts | 14° |
| 2026-05-05 05:39 | 51.45328 | 0.65617 | 7114 ft | 249 kts | 15° |
| 2026-05-05 05:39 | 51.46973 | 0.66301 | 7566 ft | 256 kts | 15° |
| 2026-05-05 05:39 | 51.48745 | 0.67035 | 7960 ft | 264 kts | 15° |
| 2026-05-05 05:39 | 51.50555 | 0.67783 | 8474 ft | 268 kts | 15° |
| 2026-05-05 05:40 | 51.52346 | 0.68524 | 8988 ft | 270 kts | 15° |
| 2026-05-05 05:40 | 51.54158 | 0.69274 | 9514 ft | 272 kts | 16° |
| 2026-05-05 05:40 | 51.55925 | 0.70004 | 9996 ft | 275 kts | 16° |
| 2026-05-05 05:40 | 51.57766 | 0.70766 | 10500 ft | 277 kts | 16° |
| 2026-05-05 05:41 | 51.59645 | 0.71544 | 11024 ft | 280 kts | 16° |
| 2026-05-05 05:41 | 51.61561 | 0.72338 | 11563 ft | 282 kts | 16° |
| 2026-05-05 05:41 | 51.63465 | 0.73129 | 12070 ft | 285 kts | 16° |
| 2026-05-05 05:41 | 51.65253 | 0.73871 | 12546 ft | 288 kts | 16° |
| 2026-05-05 05:42 | 51.67193 | 0.74676 | 13082 ft | 290 kts | 16° |
| 2026-05-05 05:42 | 51.69161 | 0.75495 | 13644 ft | 292 kts | 16° |
| 2026-05-05 05:42 | 51.71128 | 0.76314 | 14226 ft | 294 kts | 16° |
| 2026-05-05 05:42 | 51.73146 | 0.77155 | 14759 ft | 297 kts | 16° |
| 2026-05-05 05:43 | 51.75155 | 0.77992 | 15283 ft | 300 kts | 16° |
| 2026-05-05 05:43 | 51.77197 | 0.78845 | 15803 ft | 302 kts | 16° |
| 2026-05-05 05:43 | 51.79277 | 0.79715 | 16323 ft | 306 kts | 17° |
| 2026-05-05 05:43 | 51.81364 | 0.80625 | 16853 ft | 308 kts | 21° |
| 2026-05-05 05:44 | 51.83159 | 0.82403 | 17228 ft | 301 kts | 53° |
| 2026-05-05 05:44 | 51.84130 | 0.85319 | 17649 ft | 292 kts | 77° |
| 2026-05-05 05:44 | 51.84725 | 0.88475 | 18152 ft | 294 kts | 79° |
| 2026-05-05 05:44 | 51.85310 | 0.91706 | 18702 ft | 296 kts | 79° |
| 2026-05-05 05:45 | 51.85875 | 0.94886 | 19227 ft | 297 kts | 80° |
| 2026-05-05 05:45 | 51.86447 | 0.98133 | 19745 ft | 300 kts | 80° |
| 2026-05-05 05:45 | 51.87020 | 1.01403 | 20297 ft | 301 kts | 80° |
| 2026-05-05 05:45 | 51.87587 | 1.04659 | 20815 ft | 303 kts | 80° |
| 2026-05-05 05:46 | 51.88158 | 1.07953 | 21285 ft | 306 kts | 80° |
| 2026-05-05 05:46 | 51.88742 | 1.11338 | 21798 ft | 308 kts | 80° |
| 2026-05-05 05:46 | 51.89299 | 1.14578 | 22286 ft | 310 kts | 80° |
| 2026-05-05 05:46 | 51.89880 | 1.17960 | 22814 ft | 311 kts | 80° |
| 2026-05-05 05:47 | 51.90462 | 1.21361 | 23321 ft | 313 kts | 80° |
| 2026-05-05 05:47 | 51.91042 | 1.24762 | 23825 ft | 315 kts | 80° |
| 2026-05-05 05:47 | 51.91625 | 1.28185 | 24307 ft | 318 kts | 80° |
| 2026-05-05 05:47 | 51.92214 | 1.31647 | 24798 ft | 321 kts | 80° |
| 2026-05-05 05:48 | 51.92805 | 1.35137 | 25266 ft | 324 kts | 80° |
| 2026-05-05 05:48 | 51.93404 | 1.38678 | 25763 ft | 326 kts | 80° |
| 2026-05-05 05:48 | 51.94003 | 1.42226 | 26226 ft | 329 kts | 79° |
| 2026-05-05 05:48 | 51.94604 | 1.45790 | 26718 ft | 331 kts | 79° |
| 2026-05-05 05:49 | 51.95217 | 1.49442 | 27213 ft | 333 kts | 79° |
| 2026-05-05 05:49 | 51.95829 | 1.53089 | 27651 ft | 336 kts | 79° |
| 2026-05-05 05:49 | 51.96439 | 1.56730 | 28114 ft | 338 kts | 79° |
| 2026-05-05 05:49 | 51.97066 | 1.60483 | 28573 ft | 340 kts | 79° |
| 2026-05-05 05:50 | 51.97681 | 1.64175 | 28998 ft | 342 kts | 79° |
| 2026-05-05 05:50 | 51.98310 | 1.67957 | 29421 ft | 345 kts | 80° |
| 2026-05-05 05:50 | 51.98935 | 1.71726 | 29838 ft | 347 kts | 79° |
| 2026-05-05 05:50 | 51.99576 | 1.75594 | 30233 ft | 350 kts | 79° |
| 2026-05-05 05:51 | 52.00205 | 1.79403 | 30601 ft | 353 kts | 79° |
| 2026-05-05 05:51 | 52.00843 | 1.83275 | 30994 ft | 355 kts | 79° |
| 2026-05-05 05:51 | 52.01486 | 1.87180 | 31431 ft | 355 kts | 79° |
| 2026-05-05 05:51 | 52.02127 | 1.91088 | 31813 ft | 357 kts | 79° |
| 2026-05-05 05:52 | 52.02764 | 1.94977 | 32192 ft | 359 kts | 79° |
| 2026-05-05 05:52 | 52.03412 | 1.98950 | 32549 ft | 361 kts | 79° |
| 2026-05-05 05:52 | 52.04060 | 2.02926 | 32907 ft | 362 kts | 79° |
| 2026-05-05 05:52 | 52.04702 | 2.06877 | 33238 ft | 363 kts | 79° |
| 2026-05-05 05:53 | 52.05347 | 2.10763 | 33157 ft | 349 kts | 77° |
| 2026-05-05 05:53 | 52.05983 | 2.14467 | 32706 ft | 338 kts | 78° |
| 2026-05-05 05:53 | 52.06606 | 2.18194 | 31479 ft | 350 kts | 78° |
| 2026-05-05 05:53 | 52.07224 | 2.21962 | 30451 ft | 352 kts | 78° |
| 2026-05-05 05:54 | 52.07841 | 2.25763 | 29671 ft | 347 kts | 79° |
| 2026-05-05 05:54 | 52.08436 | 2.29480 | 28952 ft | 342 kts | 79° |
| 2026-05-05 05:54 | 52.09025 | 2.33175 | 28239 ft | 337 kts | 79° |
| 2026-05-05 05:54 | 52.09603 | 2.36814 | 27519 ft | 333 kts | 79° |
| 2026-05-05 05:55 | 52.10160 | 2.40326 | 27088 ft | 317 kts | 79° |
| 2026-05-05 05:55 | 52.10715 | 2.43874 | 27036 ft | 326 kts | 80° |
| 2026-05-05 05:55 | 52.11269 | 2.47489 | 27020 ft | 340 kts | 80° |
| 2026-05-05 05:55 | 52.11736 | 2.51315 | 27017 ft | 350 kts | 84° |
| 2026-05-05 05:56 | 52.12100 | 2.55213 | 26984 ft | 342 kts | 85° |
| 2026-05-05 05:56 | 52.12458 | 2.58927 | 26986 ft | 316 kts | 85° |
| 2026-05-05 05:56 | 52.12782 | 2.62306 | 26977 ft | 288 kts | 85° |
| 2026-05-05 05:56 | 52.13079 | 2.65543 | 27030 ft | 293 kts | 86° |
| 2026-05-05 05:57 | 52.13374 | 2.68955 | 27030 ft | 312 kts | 86° |
| 2026-05-05 05:57 | 52.13698 | 2.72616 | 27028 ft | 329 kts | 85° |
| 2026-05-05 05:57 | 52.14021 | 2.76214 | 27027 ft | 341 kts | 86° |
| 2026-05-05 05:57 | 52.14075 | 2.80079 | 26656 ft | 327 kts | 101° |
| 2026-05-05 05:58 | 52.13658 | 2.83693 | 26031 ft | 319 kts | 106° |
| 2026-05-05 05:58 | 52.13168 | 2.87152 | 25601 ft | 306 kts | 107° |
| 2026-05-05 05:58 | 52.12688 | 2.90487 | 25004 ft | 301 kts | 107° |
| 2026-05-05 05:58 | 52.12219 | 2.93765 | 24333 ft | 297 kts | 107° |
| 2026-05-05 05:59 | 52.11755 | 2.97039 | 23689 ft | 293 kts | 107° |
| 2026-05-05 05:59 | 52.11308 | 3.00202 | 23046 ft | 290 kts | 107° |
| 2026-05-05 05:59 | 52.10851 | 3.03402 | 22328 ft | 289 kts | 107° |
| 2026-05-05 05:59 | 52.10392 | 3.06610 | 21618 ft | 288 kts | 107° |
| 2026-05-05 06:00 | 52.09946 | 3.09745 | 20941 ft | 286 kts | 106° |
| 2026-05-05 06:00 | 52.09566 | 3.12883 | 20285 ft | 284 kts | 104° |
| 2026-05-05 06:00 | 52.09214 | 3.16040 | 19623 ft | 281 kts | 104° |
| 2026-05-05 06:00 | 52.08862 | 3.19177 | 18997 ft | 279 kts | 104° |
| 2026-05-05 06:01 | 52.08516 | 3.22257 | 18324 ft | 276 kts | 104° |
| 2026-05-05 06:01 | 52.08178 | 3.25296 | 17713 ft | 273 kts | 104° |
| 2026-05-05 06:01 | 52.07842 | 3.28331 | 17144 ft | 271 kts | 104° |
| 2026-05-05 06:01 | 52.07521 | 3.31280 | 16527 ft | 268 kts | 104° |
| 2026-05-05 06:02 | 52.07198 | 3.34267 | 15924 ft | 266 kts | 104° |
| 2026-05-05 06:02 | 52.06884 | 3.37202 | 15335 ft | 264 kts | 103° |
| 2026-05-05 06:02 | 52.06689 | 3.40152 | 14736 ft | 264 kts | 98° |
| 2026-05-05 06:02 | 52.06569 | 3.43126 | 14131 ft | 263 kts | 98° |
| 2026-05-05 06:03 | 52.06456 | 3.46043 | 13557 ft | 260 kts | 98° |
| 2026-05-05 06:03 | 52.06342 | 3.48958 | 13034 ft | 258 kts | 97° |
| 2026-05-05 06:03 | 52.06224 | 3.51885 | 12401 ft | 257 kts | 97° |
| 2026-05-05 06:03 | 52.06106 | 3.54719 | 11840 ft | 255 kts | 98° |
| 2026-05-05 06:04 | 52.05986 | 3.57587 | 11329 ft | 253 kts | 97° |
| 2026-05-05 06:04 | 52.05864 | 3.60406 | 10785 ft | 252 kts | 97° |
| 2026-05-05 06:04 | 52.05735 | 3.63231 | 10270 ft | 250 kts | 97° |
| 2026-05-05 06:04 | 52.05597 | 3.66050 | 9716 ft | 248 kts | 98° |
| 2026-05-05 06:05 | 52.05454 | 3.68838 | 9143 ft | 246 kts | 98° |
| 2026-05-05 06:05 | 52.05312 | 3.71496 | 8625 ft | 244 kts | 98° |
| 2026-05-05 06:05 | 52.05160 | 3.74198 | 8038 ft | 242 kts | 98° |
| 2026-05-05 06:05 | 52.04998 | 3.76886 | 7448 ft | 241 kts | 98° |
| 2026-05-05 06:06 | 52.04822 | 3.79623 | 6887 ft | 239 kts | 98° |
| 2026-05-05 06:06 | 52.04641 | 3.82282 | 6371 ft | 238 kts | 98° |
| 2026-05-05 06:06 | 52.04452 | 3.84934 | 5893 ft | 235 kts | 98° |
| 2026-05-05 06:06 | 52.04269 | 3.87554 | 5411 ft | 233 kts | 98° |
| 2026-05-05 06:07 | 52.04097 | 3.90104 | 5112 ft | 219 kts | 98° |
| 2026-05-05 06:07 | 52.03931 | 3.92579 | 5035 ft | 223 kts | 98° |
| 2026-05-05 06:07 | 52.03760 | 3.95103 | 4978 ft | 221 kts | 98° |
| 2026-05-05 06:07 | 52.03596 | 3.97579 | 4973 ft | 218 kts | 98° |
| 2026-05-05 06:08 | 52.03416 | 4.00038 | 4964 ft | 214 kts | 101° |
| 2026-05-05 06:08 | 52.03166 | 4.02388 | 4963 ft | 211 kts | 102° |
| 2026-05-05 06:08 | 52.02911 | 4.04732 | 4962 ft | 210 kts | 102° |
| 2026-05-05 06:08 | 52.02642 | 4.07128 | 4960 ft | 215 kts | 102° |
| 2026-05-05 06:09 | 52.02369 | 4.09527 | 4961 ft | 218 kts | 102° |
| 2026-05-05 06:09 | 52.02091 | 4.11975 | 4954 ft | 221 kts | 102° |
| 2026-05-05 06:09 | 52.01813 | 4.14431 | 4954 ft | 224 kts | 102° |
| 2026-05-05 06:09 | 52.01535 | 4.16915 | 4950 ft | 226 kts | 102° |
| 2026-05-05 06:10 | 52.01263 | 4.19357 | 4958 ft | 227 kts | 102° |
| 2026-05-05 06:10 | 52.00979 | 4.21895 | 4950 ft | 227 kts | 102° |
| 2026-05-05 06:10 | 52.00706 | 4.24316 | 4932 ft | 224 kts | 102° |
| 2026-05-05 06:10 | 52.00432 | 4.26779 | 4919 ft | 220 kts | 102° |
| 2026-05-05 06:11 | 52.00167 | 4.29162 | 4916 ft | 216 kts | 102° |
| 2026-05-05 06:11 | 51.99910 | 4.31503 | 4919 ft | 212 kts | 102° |
| 2026-05-05 06:11 | 51.99659 | 4.33833 | 4917 ft | 208 kts | 102° |
| 2026-05-05 06:11 | 51.99419 | 4.36068 | 4938 ft | 204 kts | 103° |
| 2026-05-05 06:12 | 51.99136 | 4.38314 | 4956 ft | 206 kts | 105° |
| 2026-05-05 06:12 | 51.98825 | 4.40629 | 4969 ft | 216 kts | 105° |
| 2026-05-05 06:12 | 51.98477 | 4.43023 | 4971 ft | 226 kts | 107° |
| 2026-05-05 06:12 | 51.98085 | 4.45545 | 4970 ft | 235 kts | 106° |
| 2026-05-05 06:13 | 51.97699 | 4.48139 | 4965 ft | 241 kts | 103° |
| 2026-05-05 06:13 | 51.97574 | 4.50827 | 4964 ft | 241 kts | 92° |
| 2026-05-05 06:13 | 51.97578 | 4.53508 | 4961 ft | 237 kts | 92° |
| 2026-05-05 06:13 | 51.97580 | 4.56172 | 4972 ft | 235 kts | 92° |
| 2026-05-05 06:14 | 51.97584 | 4.58789 | 4948 ft | 231 kts | 92° |
| 2026-05-05 06:14 | 51.97594 | 4.61343 | 4970 ft | 227 kts | 92° |
| 2026-05-05 06:14 | 51.97676 | 4.63887 | 4939 ft | 226 kts | 80° |
| 2026-05-05 06:14 | 51.98421 | 4.66128 | 4986 ft | 229 kts | 47° |
| 2026-05-05 06:15 | 51.99731 | 4.67572 | 4986 ft | 231 kts | 31° |
| 2026-05-05 06:15 | 52.01015 | 4.68707 | 4952 ft | 230 kts | 31° |
| 2026-05-05 06:15 | 52.02479 | 4.69995 | 4968 ft | 230 kts | 31° |
| 2026-05-05 06:15 | 52.03876 | 4.71163 | 4964 ft | 230 kts | 23° |
| 2026-05-05 06:16 | 52.05434 | 4.71657 | 4960 ft | 230 kts | 6° |
| 2026-05-05 06:16 | 52.07002 | 4.71911 | 4946 ft | 229 kts | 7° |
| 2026-05-05 06:16 | 52.08585 | 4.72175 | 4954 ft | 229 kts | 6° |
| 2026-05-05 06:16 | 52.10136 | 4.72436 | 4867 ft | 219 kts | 6° |
| 2026-05-05 06:17 | 52.11647 | 4.72689 | 4281 ft | 224 kts | 6° |
| 2026-05-05 06:17 | 52.13200 | 4.72947 | 3690 ft | 225 kts | 7° |
| 2026-05-05 06:17 | 52.14556 | 4.73137 | 3272 ft | 220 kts | 4° |
| 2026-05-05 06:17 | 52.16008 | 4.73213 | 3055 ft | 197 kts | 2° |
| 2026-05-05 06:18 | 52.17270 | 4.73137 | 2961 ft | 167 kts | 352° |
| 2026-05-05 06:18 | 52.18396 | 4.72932 | 2857 ft | 157 kts | 356° |
| 2026-05-05 06:18 | 52.19450 | 4.72841 | 2487 ft | 147 kts | 359° |
| 2026-05-05 06:18 | 52.20474 | 4.72839 | 1919 ft | 153 kts | 3° |
| 2026-05-05 06:19 | 52.21514 | 4.72925 | 1478 ft | 145 kts | 5° |
| 2026-05-05 06:19 | 52.22501 | 4.73038 | 1226 ft | 140 kts | 7° |
| 2026-05-05 06:19 | 52.23445 | 4.73154 | 1108 ft | 136 kts | 7° |
| 2026-05-05 06:19 | 52.24403 | 4.73273 | 872 ft | 139 kts | 6° |
| 2026-05-05 06:20 | 52.25337 | 4.73362 | 713 ft | 136 kts | 2° |
| 2026-05-05 06:20 | 52.26288 | 4.73418 | 577 ft | 135 kts | 6° |
| 2026-05-05 06:20 | 52.27218 | 4.73469 | 453 ft | 135 kts | 4° |
| 2026-05-05 06:20 | 52.28144 | 4.73551 | 327 ft | 136 kts | 6° |
| 2026-05-05 06:21 | 52.29077 | 4.73643 | 212 ft | 135 kts | 7° |
| 2026-05-05 06:21 | 52.30019 | 4.73716 | 113 ft | 132 kts | 7° |
| 2026-05-05 06:21 | 52.30927 | 4.73807 | 1 ft | 130 kts | 3° |
| 2026-05-05 06:21 | 52.31761 | 4.73876 | -2 ft | 100 kts | 4° |
| 2026-05-05 06:22 | 52.32157 | 4.73916 | -2 ft | 32 kts | 8° |
| 2026-05-05 06:22 | 52.32360 | 4.74051 | -2 ft | 16 kts | 32° |
| 2026-05-05 06:22 | 52.32373 | 4.74063 | -2 ft | 0 kts | 32° |
| 2026-05-05 06:22 | 52.32400 | 4.74105 | -2 ft | 11 kts | 60° |
| 2026-05-05 06:23 | 52.32382 | 4.74213 | -2 ft | 12 kts | 150° |
| 2026-05-05 06:23 | 52.32283 | 4.74217 | -2 ft | 20 kts | 184° |
| 2026-05-05 06:23 | 52.32114 | 4.74203 | -2 ft | 25 kts | 184° |
| 2026-05-05 06:23 | 52.31920 | 4.74188 | -2 ft | 32 kts | 183° |
| 2026-05-05 06:24 | 52.31686 | 4.74165 | -2 ft | 32 kts | 184° |
| 2026-05-05 06:24 | 52.31490 | 4.74146 | -2 ft | 23 kts | 183° |
| 2026-05-05 06:24 | 52.31392 | 4.74188 | -1 ft | 14 kts | 108° |
| 2026-05-05 06:24 | 52.31393 | 4.74409 | -1 ft | 27 kts | 86° |
| 2026-05-05 06:25 | 52.31406 | 4.74783 | 0 ft | 35 kts | 88° |
| 2026-05-05 06:25 | 52.31417 | 4.75141 | 0 ft | 26 kts | 87° |
| 2026-05-05 06:25 | 52.31424 | 4.75372 | -1 ft | 13 kts | 95° |
| 2026-05-05 06:25 | 52.31368 | 4.75446 | -1 ft | 8 kts | 173° |
| 2026-05-05 06:26 | 52.31308 | 4.75483 | -1 ft | 10 kts | 135° |
| 2026-05-05 06:26 | 52.31285 | 4.75570 | -1 ft | 3 kts | 89° |
| 2026-05-05 06:26 | 52.31286 | 4.75605 | -1 ft | 0 kts | 85° |
| 2026-05-05 06:26 | 52.31286 | 4.75608 | -1 ft | 0 kts | 87° |